createdAt,value
2018-05-29T00:00:04.320Z,1028.85245041
2018-05-29T00:00:16.785Z,1028.81858653
2018-05-29T00:00:29.230Z,1028.81858653
2018-05-29T00:00:41.678Z,1028.81858653
2018-05-29T00:00:54.125Z,1028.81858653
2018-05-29T00:01:06.576Z,1028.78472265
2018-05-29T00:01:19.030Z,1028.78472265
2018-05-29T00:01:31.484Z,1028.78472265
2018-05-29T00:01:43.919Z,1028.78472265
2018-05-29T00:01:56.355Z,1028.78472265
2018-05-29T00:02:08.787Z,1028.78472265
2018-05-29T00:02:21.227Z,1028.78472265
2018-05-29T00:02:33.648Z,1028.78472265
2018-05-29T00:02:46.066Z,1028.78472265
2018-05-29T00:02:58.497Z,1028.78472265
2018-05-29T00:03:10.915Z,1028.78472265
2018-05-29T00:03:23.329Z,1028.78472265
2018-05-29T00:03:35.731Z,1028.78472265
2018-05-29T00:03:48.140Z,1028.78472265
2018-05-29T00:04:00.568Z,1028.78472265
2018-05-29T00:04:13.007Z,1028.81858653
2018-05-29T00:04:25.478Z,1028.81858653
2018-05-29T00:04:37.927Z,1028.81858653
2018-05-29T00:04:50.353Z,1028.81858653
2018-05-29T00:05:02.796Z,1028.81858653
2018-05-29T00:05:15.229Z,1028.81858653
2018-05-29T00:05:27.686Z,1028.81858653
2018-05-29T00:05:40.106Z,1028.81858653
2018-05-29T00:05:52.583Z,1028.81858653
2018-05-29T00:06:05.043Z,1028.81858653
2018-05-29T00:06:17.485Z,1028.81858653
2018-05-29T00:06:29.972Z,1028.81858653
2018-05-29T00:06:42.388Z,1028.81858653
2018-05-29T00:06:54.906Z,1028.81858653
2018-05-29T00:07:07.334Z,1028.88631429
2018-05-29T00:07:19.804Z,1028.88631429
2018-05-29T00:07:32.239Z,1028.88631429
2018-05-29T00:07:44.653Z,1028.88631429
2018-05-29T00:07:57.094Z,1028.88631429
2018-05-29T00:08:09.539Z,1028.92017817
2018-05-29T00:08:21.960Z,1028.92017817
2018-05-29T00:08:34.407Z,1028.92017817
2018-05-29T00:08:46.829Z,1028.92017817
2018-05-29T00:08:59.235Z,1028.92017817
2018-05-29T00:09:11.670Z,1028.75085877
2018-05-29T00:09:24.093Z,1028.75085877
2018-05-29T00:09:36.495Z,1028.75085877
2018-05-29T00:09:48.925Z,1028.75085877
2018-05-29T00:10:01.370Z,1028.75085877
2018-05-29T00:10:13.779Z,1028.81858653
2018-05-29T00:10:26.204Z,1028.81858653
2018-05-29T00:10:38.619Z,1028.81858653
2018-05-29T00:10:51.052Z,1028.81858653
2018-05-29T00:11:03.510Z,1028.75085877
2018-05-29T00:11:15.929Z,1028.75085877
2018-05-29T00:11:28.349Z,1028.75085877
2018-05-29T00:11:40.801Z,1028.75085877
2018-05-29T00:11:53.272Z,1028.75085877
2018-05-29T00:12:05.703Z,1028.81858653
2018-05-29T00:12:18.153Z,1028.81858653
2018-05-29T00:12:30.579Z,1028.81858653
2018-05-29T00:12:43.001Z,1028.81858653
2018-05-29T00:12:55.410Z,1028.81858653
2018-05-29T00:13:07.818Z,1028.78472265
2018-05-29T00:13:20.264Z,1028.78472265
2018-05-29T00:13:32.693Z,1028.78472265
2018-05-29T00:13:45.195Z,1028.78472265
2018-05-29T00:13:57.818Z,1028.78472265
2018-05-29T00:14:10.308Z,1028.71699489
2018-05-29T00:14:22.739Z,1028.71699489
2018-05-29T00:14:35.174Z,1028.71699489
2018-05-29T00:14:47.625Z,1028.71699489
2018-05-29T00:15:00.061Z,1028.71699489
2018-05-29T00:15:12.504Z,1028.75085877
2018-05-29T00:15:24.955Z,1028.75085877
2018-05-29T00:15:37.374Z,1028.75085877
2018-05-29T00:15:49.785Z,1028.75085877
2018-05-29T00:16:02.226Z,1028.75085877
2018-05-29T00:16:14.661Z,1028.75085877
2018-05-29T00:16:27.066Z,1028.75085877
2018-05-29T00:16:39.496Z,1028.75085877
2018-05-29T00:16:51.924Z,1028.75085877
2018-05-29T00:17:04.388Z,1028.78472265
2018-05-29T00:17:16.826Z,1028.78472265
2018-05-29T00:17:29.254Z,1028.78472265
2018-05-29T00:17:41.676Z,1028.78472265
2018-05-29T00:17:54.438Z,1028.78472265
2018-05-29T00:18:06.876Z,1028.75085877
2018-05-29T00:18:19.465Z,1028.75085877
2018-05-29T00:18:31.955Z,1028.75085877
2018-05-29T00:18:44.396Z,1028.75085877
2018-05-29T00:18:56.839Z,1028.75085877
2018-05-29T00:19:09.268Z,1028.75085877
2018-05-29T00:19:21.689Z,1028.75085877
2018-05-29T00:19:34.147Z,1028.75085877
2018-05-29T00:19:46.561Z,1028.75085877
2018-05-29T00:19:58.985Z,1028.75085877
2018-05-29T00:20:11.468Z,1028.78472265
2018-05-29T00:20:23.897Z,1028.78472265
2018-05-29T00:20:36.311Z,1028.78472265
2018-05-29T00:20:48.735Z,1028.78472265
2018-05-29T00:21:01.152Z,1028.78472265
2018-05-29T00:21:13.593Z,1028.71699489
2018-05-29T00:21:26.010Z,1028.71699489
2018-05-29T00:21:38.409Z,1028.71699489
2018-05-29T00:21:50.817Z,1028.71699489
2018-05-29T00:22:03.298Z,1028.71699489
2018-05-29T00:22:15.717Z,1028.71699489
2018-05-29T00:22:28.120Z,1028.71699489
2018-05-29T00:22:40.548Z,1028.71699489
2018-05-29T00:22:52.968Z,1028.71699489
2018-05-29T00:23:05.396Z,1028.64926712
2018-05-29T00:23:17.859Z,1028.64926712
2018-05-29T00:23:30.262Z,1028.64926712
2018-05-29T00:23:42.675Z,1028.64926712
2018-05-29T00:23:55.088Z,1028.64926712
2018-05-29T00:24:07.510Z,1028.75085877
2018-05-29T00:24:19.925Z,1028.75085877
2018-05-29T00:24:32.380Z,1028.75085877
2018-05-29T00:24:44.821Z,1028.75085877
2018-05-29T00:24:57.233Z,1028.75085877
2018-05-29T00:25:09.684Z,1028.75085877
2018-05-29T00:25:22.124Z,1028.75085877
2018-05-29T00:25:34.627Z,1028.75085877
2018-05-29T00:25:47.092Z,1028.75085877
2018-05-29T00:25:59.536Z,1028.75085877
2018-05-29T00:26:11.956Z,1028.683131
2018-05-29T00:26:24.394Z,1028.683131
2018-05-29T00:26:36.820Z,1028.683131
2018-05-29T00:26:49.264Z,1028.683131
2018-05-29T00:27:01.693Z,1028.683131
2018-05-29T00:27:14.107Z,1028.64926712
2018-05-29T00:27:26.528Z,1028.64926712
2018-05-29T00:27:38.941Z,1028.64926712
2018-05-29T00:27:51.372Z,1028.64926712
2018-05-29T00:28:03.805Z,1028.61540324
2018-05-29T00:28:16.394Z,1028.61540324
2018-05-29T00:28:28.819Z,1028.61540324
2018-05-29T00:28:41.234Z,1028.61540324
2018-05-29T00:28:53.645Z,1028.61540324
2018-05-29T00:29:06.073Z,1028.64926712
2018-05-29T00:29:18.510Z,1028.64926712
2018-05-29T00:29:30.942Z,1028.64926712
2018-05-29T00:29:43.381Z,1028.64926712
2018-05-29T00:29:55.801Z,1028.64926712
2018-05-29T00:30:08.217Z,1028.683131
2018-05-29T00:30:20.684Z,1028.683131
2018-05-29T00:30:33.111Z,1028.683131
2018-05-29T00:30:45.576Z,1028.683131
2018-05-29T00:30:57.990Z,1028.683131
2018-05-29T00:31:10.426Z,1028.61540324
2018-05-29T00:31:22.849Z,1028.61540324
2018-05-29T00:31:35.263Z,1028.61540324
2018-05-29T00:31:47.679Z,1028.61540324
2018-05-29T00:32:00.081Z,1028.61540324
2018-05-29T00:32:12.540Z,1028.61540324
2018-05-29T00:32:24.954Z,1028.61540324
2018-05-29T00:32:37.411Z,1028.61540324
2018-05-29T00:32:50.006Z,1028.61540324
2018-05-29T00:33:02.425Z,1028.61540324
2018-05-29T00:33:14.867Z,1028.61540324
2018-05-29T00:33:27.289Z,1028.61540324
2018-05-29T00:33:39.701Z,1028.61540324
2018-05-29T00:33:52.128Z,1028.61540324
2018-05-29T00:34:04.543Z,1028.58153936
2018-05-29T00:34:16.984Z,1028.58153936
2018-05-29T00:34:29.397Z,1028.58153936
2018-05-29T00:34:41.864Z,1028.58153936
2018-05-29T00:34:54.281Z,1028.58153936
2018-05-29T00:35:06.911Z,1028.61540324
2018-05-29T00:35:19.321Z,1028.61540324
2018-05-29T00:35:31.752Z,1028.61540324
2018-05-29T00:35:44.181Z,1028.61540324
2018-05-29T00:35:56.601Z,1028.61540324
2018-05-29T00:36:09.049Z,1028.61540324
2018-05-29T00:36:21.463Z,1028.61540324
2018-05-29T00:36:34.091Z,1028.61540324
2018-05-29T00:36:46.677Z,1028.61540324
2018-05-29T00:36:59.081Z,1028.61540324
2018-05-29T00:37:11.515Z,1028.64926712
2018-05-29T00:37:23.919Z,1028.64926712
2018-05-29T00:37:36.348Z,1028.64926712
2018-05-29T00:37:48.764Z,1028.64926712
2018-05-29T00:38:01.172Z,1028.64926712
2018-05-29T00:38:13.614Z,1028.54767548
2018-05-29T00:38:26.053Z,1028.54767548
2018-05-29T00:38:38.458Z,1028.54767548
2018-05-29T00:38:50.895Z,1028.54767548
2018-05-29T00:39:03.319Z,1028.54767548
2018-05-29T00:39:15.752Z,1028.54767548
2018-05-29T00:39:28.174Z,1028.54767548
2018-05-29T00:39:40.602Z,1028.54767548
2018-05-29T00:39:53.068Z,1028.54767548
2018-05-29T00:40:05.495Z,1028.5138116
2018-05-29T00:40:17.943Z,1028.5138116
2018-05-29T00:40:30.356Z,1028.5138116
2018-05-29T00:40:42.771Z,1028.5138116
2018-05-29T00:40:55.177Z,1028.5138116
2018-05-29T00:41:07.751Z,1028.47994771
2018-05-29T00:41:20.178Z,1028.47994771
2018-05-29T00:41:32.611Z,1028.47994771
2018-05-29T00:41:45.061Z,1028.47994771
2018-05-29T00:41:57.526Z,1028.47994771
2018-05-29T00:42:09.983Z,1028.58153936
2018-05-29T00:42:22.417Z,1028.58153936
2018-05-29T00:42:34.846Z,1028.58153936
2018-05-29T00:42:47.285Z,1028.58153936
2018-05-29T00:42:59.713Z,1028.58153936
2018-05-29T00:43:12.132Z,1028.61540324
2018-05-29T00:43:24.582Z,1028.61540324
2018-05-29T00:43:36.987Z,1028.61540324
2018-05-29T00:43:49.408Z,1028.61540324
2018-05-29T00:44:01.825Z,1028.61540324
2018-05-29T00:44:14.239Z,1028.47994771
2018-05-29T00:44:26.687Z,1028.47994771
2018-05-29T00:44:39.115Z,1028.47994771
2018-05-29T00:44:51.571Z,1028.47994771
2018-05-29T00:45:03.995Z,1028.5138116
2018-05-29T00:45:16.429Z,1028.5138116
2018-05-29T00:45:28.885Z,1028.5138116
2018-05-29T00:45:41.294Z,1028.5138116
2018-05-29T00:45:53.731Z,1028.5138116
2018-05-29T00:46:06.206Z,1028.58153936
2018-05-29T00:46:18.624Z,1028.58153936
2018-05-29T00:46:31.057Z,1028.58153936
2018-05-29T00:46:43.505Z,1028.58153936
2018-05-29T00:46:55.942Z,1028.58153936
2018-05-29T00:47:08.345Z,1028.5138116
2018-05-29T00:47:20.802Z,1028.5138116
2018-05-29T00:47:33.229Z,1028.5138116
2018-05-29T00:47:45.669Z,1028.5138116
2018-05-29T00:47:58.075Z,1028.5138116
2018-05-29T00:48:10.486Z,1028.54767548
2018-05-29T00:48:23.185Z,1028.54767548
2018-05-29T00:48:35.614Z,1028.54767548
2018-05-29T00:48:48.054Z,1028.54767548
2018-05-29T00:49:00.502Z,1028.54767548
2018-05-29T00:49:12.941Z,1028.44608383
2018-05-29T00:49:25.368Z,1028.44608383
2018-05-29T00:49:37.801Z,1028.44608383
2018-05-29T00:49:50.194Z,1028.44608383
2018-05-29T00:50:02.623Z,1028.44608383
2018-05-29T00:50:15.235Z,1028.37835607
2018-05-29T00:50:27.677Z,1028.37835607
2018-05-29T00:50:40.110Z,1028.37835607
2018-05-29T00:50:52.525Z,1028.37835607
2018-05-29T00:51:04.943Z,1028.5138116
2018-05-29T00:51:18.056Z,1028.5138116
2018-05-29T00:51:30.478Z,1028.5138116
2018-05-29T00:51:42.911Z,1028.5138116
2018-05-29T00:51:55.365Z,1028.5138116
2018-05-29T00:52:07.788Z,1028.47994771
2018-05-29T00:52:20.193Z,1028.47994771
2018-05-29T00:52:32.766Z,1028.47994771
2018-05-29T00:52:45.197Z,1028.47994771
2018-05-29T00:52:57.615Z,1028.47994771
2018-05-29T00:53:10.059Z,1028.44608383
2018-05-29T00:53:22.529Z,1028.44608383
2018-05-29T00:53:34.956Z,1028.44608383
2018-05-29T00:53:47.402Z,1028.44608383
2018-05-29T00:53:59.869Z,1028.44608383
2018-05-29T00:54:12.327Z,1028.47994771
2018-05-29T00:54:24.763Z,1028.47994771
2018-05-29T00:54:37.174Z,1028.47994771
2018-05-29T00:54:49.596Z,1028.47994771
2018-05-29T00:55:02.017Z,1028.47994771
2018-05-29T00:55:14.446Z,1028.47994771
2018-05-29T00:55:26.898Z,1028.47994771
2018-05-29T00:55:39.360Z,1028.47994771
2018-05-29T00:55:51.797Z,1028.47994771
2018-05-29T00:56:04.210Z,1028.44608383
2018-05-29T00:56:16.657Z,1028.44608383
2018-05-29T00:56:29.140Z,1028.44608383
2018-05-29T00:56:41.577Z,1028.44608383
2018-05-29T00:56:54.002Z,1028.44608383
2018-05-29T00:57:06.418Z,1028.41221995
2018-05-29T00:57:18.839Z,1028.41221995
2018-05-29T00:57:31.278Z,1028.41221995
2018-05-29T00:57:43.701Z,1028.41221995
2018-05-29T00:57:56.313Z,1028.41221995
2018-05-29T00:58:08.742Z,1028.44608383
2018-05-29T00:58:21.175Z,1028.44608383
2018-05-29T00:58:33.574Z,1028.44608383
2018-05-29T00:58:46.007Z,1028.44608383
2018-05-29T00:58:58.438Z,1028.44608383
2018-05-29T00:59:10.899Z,1028.47994771
2018-05-29T00:59:23.313Z,1028.47994771
2018-05-29T00:59:35.741Z,1028.47994771
2018-05-29T00:59:48.160Z,1028.47994771
2018-05-29T01:00:00.584Z,1028.47994771
2018-05-29T01:00:13.067Z,1028.58153936
2018-05-29T01:00:25.541Z,1028.58153936
2018-05-29T01:00:38.017Z,1028.58153936
2018-05-29T01:00:50.494Z,1028.58153936
2018-05-29T01:01:02.935Z,1028.58153936
2018-05-29T01:01:15.392Z,1028.54767548
2018-05-29T01:01:27.838Z,1028.54767548
2018-05-29T01:01:40.273Z,1028.54767548
2018-05-29T01:01:52.711Z,1028.54767548
2018-05-29T01:02:05.148Z,1028.41221995
2018-05-29T01:02:17.589Z,1028.41221995
2018-05-29T01:02:30.031Z,1028.41221995
2018-05-29T01:02:42.479Z,1028.41221995
2018-05-29T01:02:54.946Z,1028.41221995
2018-05-29T01:03:07.437Z,1028.5138116
2018-05-29T01:03:19.851Z,1028.5138116
2018-05-29T01:03:32.292Z,1028.5138116
2018-05-29T01:03:44.731Z,1028.5138116
2018-05-29T01:03:57.160Z,1028.5138116
2018-05-29T01:04:09.574Z,1028.37835607
2018-05-29T01:04:22.013Z,1028.37835607
2018-05-29T01:04:34.433Z,1028.37835607
2018-05-29T01:04:46.874Z,1028.37835607
2018-05-29T01:04:59.298Z,1028.37835607
2018-05-29T01:05:11.758Z,1028.34449219
2018-05-29T01:05:24.182Z,1028.34449219
2018-05-29T01:05:36.624Z,1028.34449219
2018-05-29T01:05:49.156Z,1028.34449219
2018-05-29T01:06:01.588Z,1028.34449219
2018-05-29T01:06:14.021Z,1028.44608383
2018-05-29T01:06:26.466Z,1028.44608383
2018-05-29T01:06:38.895Z,1028.44608383
2018-05-29T01:06:51.308Z,1028.44608383
2018-05-29T01:07:03.721Z,1028.37835607
2018-05-29T01:07:16.129Z,1028.37835607
2018-05-29T01:07:28.580Z,1028.37835607
2018-05-29T01:07:40.993Z,1028.37835607
2018-05-29T01:07:53.420Z,1028.37835607
2018-05-29T01:08:05.845Z,1028.37835607
2018-05-29T01:08:18.278Z,1028.37835607
2018-05-29T01:08:30.712Z,1028.37835607
2018-05-29T01:08:43.127Z,1028.37835607
2018-05-29T01:08:55.567Z,1028.37835607
2018-05-29T01:09:07.978Z,1028.47994771
2018-05-29T01:09:20.385Z,1028.47994771
2018-05-29T01:09:32.792Z,1028.47994771
2018-05-29T01:09:45.224Z,1028.47994771
2018-05-29T01:09:57.681Z,1028.47994771
2018-05-29T01:10:10.105Z,1028.37835607
2018-05-29T01:10:22.516Z,1028.37835607
2018-05-29T01:10:34.937Z,1028.37835607
2018-05-29T01:10:47.390Z,1028.37835607
2018-05-29T01:10:59.811Z,1028.37835607
2018-05-29T01:11:12.254Z,1028.41221995
2018-05-29T01:11:24.691Z,1028.41221995
2018-05-29T01:11:37.114Z,1028.41221995
2018-05-29T01:11:49.519Z,1028.41221995
2018-05-29T01:12:01.972Z,1028.41221995
2018-05-29T01:12:14.408Z,1028.34449219
2018-05-29T01:12:26.848Z,1028.34449219
2018-05-29T01:12:39.585Z,1028.34449219
2018-05-29T01:12:52.271Z,1028.34449219
2018-05-29T01:13:04.723Z,1028.31062831
2018-05-29T01:13:17.159Z,1028.31062831
2018-05-29T01:13:29.612Z,1028.31062831
2018-05-29T01:13:42.085Z,1028.31062831
2018-05-29T01:13:54.506Z,1028.31062831
2018-05-29T01:14:06.988Z,1028.37835607
2018-05-29T01:14:19.405Z,1028.37835607
2018-05-29T01:14:31.842Z,1028.37835607
2018-05-29T01:14:44.242Z,1028.37835607
2018-05-29T01:14:56.664Z,1028.37835607
2018-05-29T01:15:09.087Z,1028.34449219
2018-05-29T01:15:21.514Z,1028.34449219
2018-05-29T01:15:33.935Z,1028.34449219
2018-05-29T01:15:46.503Z,1028.34449219
2018-05-29T01:15:58.935Z,1028.34449219
2018-05-29T01:16:11.379Z,1028.37835607
2018-05-29T01:16:23.817Z,1028.37835607
2018-05-29T01:16:36.225Z,1028.37835607
2018-05-29T01:16:48.634Z,1028.37835607
2018-05-29T01:17:01.086Z,1028.37835607
2018-05-29T01:17:13.526Z,1028.34449219
2018-05-29T01:17:25.949Z,1028.34449219
2018-05-29T01:17:38.388Z,1028.34449219
2018-05-29T01:17:50.878Z,1028.34449219
2018-05-29T01:18:03.311Z,1028.41221995
2018-05-29T01:18:15.803Z,1028.41221995
2018-05-29T01:18:28.230Z,1028.41221995
2018-05-29T01:18:40.723Z,1028.41221995
2018-05-29T01:18:53.134Z,1028.41221995
2018-05-29T01:19:05.562Z,1028.34449219
2018-05-29T01:19:17.995Z,1028.34449219
2018-05-29T01:19:30.429Z,1028.34449219
2018-05-29T01:19:42.841Z,1028.34449219
2018-05-29T01:19:55.257Z,1028.34449219
2018-05-29T01:20:07.695Z,1028.34449219
2018-05-29T01:20:20.136Z,1028.34449219
2018-05-29T01:20:32.582Z,1028.34449219
2018-05-29T01:20:45.014Z,1028.34449219
2018-05-29T01:20:57.428Z,1028.34449219
2018-05-29T01:21:09.856Z,1028.27676442
2018-05-29T01:21:22.282Z,1028.27676442
2018-05-29T01:21:34.698Z,1028.27676442
2018-05-29T01:21:47.131Z,1028.27676442
2018-05-29T01:21:59.544Z,1028.27676442
2018-05-29T01:22:11.977Z,1028.24290054
2018-05-29T01:22:24.417Z,1028.24290054
2018-05-29T01:22:36.852Z,1028.24290054
2018-05-29T01:22:49.273Z,1028.24290054
2018-05-29T01:23:01.717Z,1028.24290054
2018-05-29T01:23:14.173Z,1028.34449219
2018-05-29T01:23:26.594Z,1028.34449219
2018-05-29T01:23:39.045Z,1028.34449219
2018-05-29T01:23:51.477Z,1028.34449219
2018-05-29T01:24:03.902Z,1028.27676442
2018-05-29T01:24:16.317Z,1028.27676442
2018-05-29T01:24:28.758Z,1028.27676442
2018-05-29T01:24:41.230Z,1028.27676442
2018-05-29T01:24:53.653Z,1028.27676442
2018-05-29T01:25:06.084Z,1028.27676442
2018-05-29T01:25:18.575Z,1028.27676442
2018-05-29T01:25:31.016Z,1028.27676442
2018-05-29T01:25:43.442Z,1028.27676442
2018-05-29T01:25:55.872Z,1028.27676442
2018-05-29T01:26:08.304Z,1028.17517278
2018-05-29T01:26:20.725Z,1028.17517278
2018-05-29T01:26:33.148Z,1028.17517278
2018-05-29T01:26:45.548Z,1028.17517278
2018-05-29T01:26:57.955Z,1028.17517278
2018-05-29T01:27:10.391Z,1028.27676442
2018-05-29T01:27:22.818Z,1028.27676442
2018-05-29T01:27:35.224Z,1028.27676442
2018-05-29T01:27:47.634Z,1028.27676442
2018-05-29T01:28:00.050Z,1028.27676442
2018-05-29T01:28:12.492Z,1028.20903666
2018-05-29T01:28:24.978Z,1028.20903666
2018-05-29T01:28:37.412Z,1028.20903666
2018-05-29T01:28:49.829Z,1028.20903666
2018-05-29T01:29:02.288Z,1028.20903666
2018-05-29T01:29:14.755Z,1028.27676442
2018-05-29T01:29:27.211Z,1028.27676442
2018-05-29T01:29:39.645Z,1028.27676442
2018-05-29T01:29:52.119Z,1028.27676442
2018-05-29T01:30:04.556Z,1028.31062831
2018-05-29T01:30:17.004Z,1028.31062831
2018-05-29T01:30:29.420Z,1028.31062831
2018-05-29T01:30:41.845Z,1028.31062831
2018-05-29T01:30:54.302Z,1028.31062831
2018-05-29T01:31:06.718Z,1028.20903666
2018-05-29T01:31:19.162Z,1028.20903666
2018-05-29T01:31:31.629Z,1028.20903666
2018-05-29T01:31:44.051Z,1028.20903666
2018-05-29T01:31:56.479Z,1028.20903666
2018-05-29T01:32:08.898Z,1028.31062831
2018-05-29T01:32:21.322Z,1028.31062831
2018-05-29T01:32:33.744Z,1028.31062831
2018-05-29T01:32:46.176Z,1028.31062831
2018-05-29T01:32:58.621Z,1028.31062831
2018-05-29T01:33:11.060Z,1028.20903666
2018-05-29T01:33:23.825Z,1028.20903666
2018-05-29T01:33:36.259Z,1028.20903666
2018-05-29T01:33:48.701Z,1028.20903666
2018-05-29T01:34:01.121Z,1028.20903666
2018-05-29T01:34:13.560Z,1028.17517278
2018-05-29T01:34:26.008Z,1028.17517278
2018-05-29T01:34:38.425Z,1028.17517278
2018-05-29T01:34:50.865Z,1028.17517278
2018-05-29T01:35:03.279Z,1028.17517278
2018-05-29T01:35:15.999Z,1028.17517278
2018-05-29T01:35:28.468Z,1028.17517278
2018-05-29T01:35:40.913Z,1028.17517278
2018-05-29T01:35:53.344Z,1028.17517278
2018-05-29T01:36:05.796Z,1028.24290054
2018-05-29T01:36:18.216Z,1028.24290054
2018-05-29T01:36:30.659Z,1028.24290054
2018-05-29T01:36:43.094Z,1028.24290054
2018-05-29T01:36:55.512Z,1028.24290054
2018-05-29T01:37:07.924Z,1028.20903666
2018-05-29T01:37:20.669Z,1028.20903666
2018-05-29T01:37:33.118Z,1028.20903666
2018-05-29T01:37:45.544Z,1028.20903666
2018-05-29T01:37:57.972Z,1028.20903666
2018-05-29T01:38:10.377Z,1028.24290054
2018-05-29T01:38:22.884Z,1028.24290054
2018-05-29T01:38:35.333Z,1028.24290054
2018-05-29T01:38:47.743Z,1028.24290054
2018-05-29T01:39:00.188Z,1028.24290054
2018-05-29T01:39:12.610Z,1028.17517278
2018-05-29T01:39:25.046Z,1028.17517278
2018-05-29T01:39:37.484Z,1028.17517278
2018-05-29T01:39:49.916Z,1028.17517278
2018-05-29T01:40:02.336Z,1028.17517278
2018-05-29T01:40:14.816Z,1028.24290054
2018-05-29T01:40:27.242Z,1028.24290054
2018-05-29T01:40:39.679Z,1028.24290054
2018-05-29T01:40:52.106Z,1028.24290054
2018-05-29T01:41:04.656Z,1028.1413089
2018-05-29T01:41:17.070Z,1028.1413089
2018-05-29T01:41:29.500Z,1028.1413089
2018-05-29T01:41:41.933Z,1028.1413089
2018-05-29T01:41:54.356Z,1028.1413089
2018-05-29T01:42:06.815Z,1028.20903666
2018-05-29T01:42:19.258Z,1028.20903666
2018-05-29T01:42:31.699Z,1028.20903666
2018-05-29T01:42:44.125Z,1028.20903666
2018-05-29T01:42:56.540Z,1028.20903666
2018-05-29T01:43:08.967Z,1028.07358114
2018-05-29T01:43:21.417Z,1028.07358114
2018-05-29T01:43:33.833Z,1028.07358114
2018-05-29T01:43:46.251Z,1028.07358114
2018-05-29T01:43:58.729Z,1028.07358114
2018-05-29T01:44:11.164Z,1028.24290054
2018-05-29T01:44:23.591Z,1028.24290054
2018-05-29T01:44:36.052Z,1028.24290054
2018-05-29T01:44:48.482Z,1028.24290054
2018-05-29T01:45:00.916Z,1028.24290054
2018-05-29T01:45:13.367Z,1028.1413089
2018-05-29T01:45:25.794Z,1028.1413089
2018-05-29T01:45:38.268Z,1028.1413089
2018-05-29T01:45:50.700Z,1028.1413089
2018-05-29T01:46:03.174Z,1028.20903666
2018-05-29T01:46:15.579Z,1028.20903666
2018-05-29T01:46:28.005Z,1028.20903666
2018-05-29T01:46:40.411Z,1028.20903666
2018-05-29T01:46:52.827Z,1028.20903666
2018-05-29T01:47:05.243Z,1028.07358114
2018-05-29T01:47:17.660Z,1028.07358114
2018-05-29T01:47:30.066Z,1028.07358114
2018-05-29T01:47:42.496Z,1028.07358114
2018-05-29T01:47:54.899Z,1028.07358114
2018-05-29T01:48:07.337Z,1028.17517278
2018-05-29T01:48:19.784Z,1028.17517278
2018-05-29T01:48:32.358Z,1028.17517278
2018-05-29T01:48:44.834Z,1028.17517278
2018-05-29T01:48:57.276Z,1028.17517278
2018-05-29T01:49:09.701Z,1028.10744502
2018-05-29T01:49:22.113Z,1028.10744502
2018-05-29T01:49:34.556Z,1028.10744502
2018-05-29T01:49:46.956Z,1028.10744502
2018-05-29T01:49:59.396Z,1028.10744502
2018-05-29T01:50:12.038Z,1028.1413089
2018-05-29T01:50:24.460Z,1028.1413089
2018-05-29T01:50:36.908Z,1028.1413089
2018-05-29T01:50:49.317Z,1028.1413089
2018-05-29T01:51:01.750Z,1028.1413089
2018-05-29T01:51:14.172Z,1028.10744502
2018-05-29T01:51:26.748Z,1028.10744502
2018-05-29T01:51:39.183Z,1028.10744502
2018-05-29T01:51:51.591Z,1028.10744502
2018-05-29T01:52:04.026Z,1028.03971725
2018-05-29T01:52:16.474Z,1028.03971725
2018-05-29T01:52:29.038Z,1028.03971725
2018-05-29T01:52:41.462Z,1028.03971725
2018-05-29T01:52:53.876Z,1028.03971725
2018-05-29T01:53:06.295Z,1028.07358114
2018-05-29T01:53:18.789Z,1028.07358114
2018-05-29T01:53:31.199Z,1028.07358114
2018-05-29T01:53:43.635Z,1028.07358114
2018-05-29T01:53:56.062Z,1028.07358114
2018-05-29T01:54:08.491Z,1028.20903666
2018-05-29T01:54:20.959Z,1028.20903666
2018-05-29T01:54:33.364Z,1028.20903666
2018-05-29T01:54:45.792Z,1028.20903666
2018-05-29T01:54:58.238Z,1028.20903666
2018-05-29T01:55:10.694Z,1028.1413089
2018-05-29T01:55:23.109Z,1028.1413089
2018-05-29T01:55:35.505Z,1028.1413089
2018-05-29T01:55:47.905Z,1028.1413089
2018-05-29T01:56:00.312Z,1028.1413089
2018-05-29T01:56:12.743Z,1028.17517278
2018-05-29T01:56:25.154Z,1028.17517278
2018-05-29T01:56:37.577Z,1028.17517278
2018-05-29T01:56:50.069Z,1028.17517278
2018-05-29T01:57:02.485Z,1028.17517278
2018-05-29T01:57:14.901Z,1028.1413089
2018-05-29T01:57:27.344Z,1028.1413089
2018-05-29T01:57:39.788Z,1028.1413089
2018-05-29T01:57:52.204Z,1028.1413089
2018-05-29T01:58:04.711Z,1028.1413089
2018-05-29T01:58:17.138Z,1028.1413089
2018-05-29T01:58:29.571Z,1028.1413089
2018-05-29T01:58:41.991Z,1028.1413089
2018-05-29T01:58:54.389Z,1028.1413089
2018-05-29T01:59:06.859Z,1028.07358114
2018-05-29T01:59:19.291Z,1028.07358114
2018-05-29T01:59:31.696Z,1028.07358114
2018-05-29T01:59:44.116Z,1028.07358114
2018-05-29T01:59:56.537Z,1028.07358114
2018-05-29T02:00:09.030Z,1028.1413089
2018-05-29T02:00:21.469Z,1028.1413089
2018-05-29T02:00:33.924Z,1028.1413089
2018-05-29T02:00:46.413Z,1028.1413089
2018-05-29T02:00:58.865Z,1028.1413089
2018-05-29T02:01:11.331Z,1028.07358114
2018-05-29T02:01:23.806Z,1028.07358114
2018-05-29T02:01:36.258Z,1028.07358114
2018-05-29T02:01:48.715Z,1028.07358114
2018-05-29T02:02:01.131Z,1028.07358114
2018-05-29T02:02:13.554Z,1028.17517278
2018-05-29T02:02:25.988Z,1028.17517278
2018-05-29T02:02:38.419Z,1028.17517278
2018-05-29T02:02:50.847Z,1028.17517278
2018-05-29T02:03:03.319Z,1028.10744502
2018-05-29T02:03:15.782Z,1028.10744502
2018-05-29T02:03:28.212Z,1028.10744502
2018-05-29T02:03:40.664Z,1028.10744502
2018-05-29T02:03:53.118Z,1028.10744502
2018-05-29T02:04:05.546Z,1028.20903666
2018-05-29T02:04:18.083Z,1028.20903666
2018-05-29T02:04:31.616Z,1028.20903666
2018-05-29T02:04:44.746Z,1028.20903666
2018-05-29T02:04:57.174Z,1028.20903666
2018-05-29T02:05:09.619Z,1028.10744502
2018-05-29T02:05:22.086Z,1028.10744502
2018-05-29T02:05:34.499Z,1028.10744502
2018-05-29T02:05:46.961Z,1028.10744502
2018-05-29T02:05:59.534Z,1028.10744502
2018-05-29T02:06:11.962Z,1028.10744502
2018-05-29T02:06:24.384Z,1028.10744502
2018-05-29T02:06:36.800Z,1028.10744502
2018-05-29T02:06:49.214Z,1028.10744502
2018-05-29T02:07:01.633Z,1028.10744502
2018-05-29T02:07:14.070Z,1028.10744502
2018-05-29T02:07:26.508Z,1028.10744502
2018-05-29T02:07:38.930Z,1028.10744502